sensor_id;sensor_type;location;lat;lon;timestamp;P1;durP1;ratioP1;P2;durP2;ratioP2
62149;SDS011;48134;53.586;10.610;2024-01-10T00:01:22;32.75;;;18.10;;
62149;SDS011;48134;53.586;10.610;2024-01-10T00:03:59;36.78;;;19.50;;
62149;SDS011;48134;53.586;10.610;2024-01-10T00:06:32;34.35;;;18.27;;
62149;SDS011;48134;53.586;10.610;2024-01-10T00:09:01;35.00;;;18.38;;
62149;SDS011;48134;53.586;10.610;2024-01-10T00:11:29;44.97;;;19.13;;
62149;SDS011;48134;53.586;10.610;2024-01-10T00:14:03;63.05;;;21.95;;
62149;SDS011;48134;53.586;10.610;2024-01-10T00:16:36;64.55;;;23.13;;
62149;SDS011;48134;53.586;10.610;2024-01-10T00:19:06;51.90;;;22.85;;
62149;SDS011;48134;53.586;10.610;2024-01-10T00:21:39;74.95;;;23.05;;
62149;SDS011;48134;53.586;10.610;2024-01-10T00:24:07;68.72;;;23.42;;
62149;SDS011;48134;53.586;10.610;2024-01-10T00:26:35;74.60;;;23.02;;
62149;SDS011;48134;53.586;10.610;2024-01-10T00:29:04;85.90;;;22.00;;
62149;SDS011;48134;53.586;10.610;2024-01-10T00:31:32;72.40;;;23.15;;
62149;SDS011;48134;53.586;10.610;2024-01-10T00:34:07;64.88;;;21.83;;
62149;SDS011;48134;53.586;10.610;2024-01-10T00:36:35;58.35;;;19.08;;
62149;SDS011;48134;53.586;10.610;2024-01-10T00:39:08;53.65;;;16.27;;
62149;SDS011;48134;53.586;10.610;2024-01-10T00:41:36;49.17;;;13.60;;
62149;SDS011;48134;53.586;10.610;2024-01-10T00:44:04;46.55;;;12.35;;
62149;SDS011;48134;53.586;10.610;2024-01-10T00:46:38;41.47;;;11.88;;
62149;SDS011;48134;53.586;10.610;2024-01-10T00:49:08;29.80;;;11.98;;
62149;SDS011;48134;53.586;10.610;2024-01-10T00:51:36;28.77;;;12.33;;
62149;SDS011;48134;53.586;10.610;2024-01-10T00:54:04;32.28;;;13.25;;
62149;SDS011;48134;53.586;10.610;2024-01-10T00:56:32;54.88;;;12.88;;
62149;SDS011;48134;53.586;10.610;2024-01-10T00:59:04;36.65;;;12.43;;
62149;SDS011;48134;53.586;10.610;2024-01-10T01:01:38;29.30;;;13.43;;
62149;SDS011;48134;53.586;10.610;2024-01-10T01:04:12;32.72;;;13.77;;
62149;SDS011;48134;53.586;10.610;2024-01-10T01:06:40;29.63;;;13.07;;
62149;SDS011;48134;53.586;10.610;2024-01-10T01:09:09;42.33;;;13.15;;
62149;SDS011;48134;53.586;10.610;2024-01-10T01:11:37;28.48;;;13.23;;
62149;SDS011;48134;53.586;10.610;2024-01-10T01:14:05;40.25;;;12.65;;
62149;SDS011;48134;53.586;10.610;2024-01-10T01:16:33;30.98;;;13.15;;
62149;SDS011;48134;53.586;10.610;2024-01-10T01:19:06;23.53;;;12.47;;
62149;SDS011;48134;53.586;10.610;2024-01-10T01:21:36;27.67;;;13.15;;
62149;SDS011;48134;53.586;10.610;2024-01-10T01:24:09;42.42;;;16.38;;
62149;SDS011;48134;53.586;10.610;2024-01-10T01:26:38;38.83;;;15.85;;
62149;SDS011;48134;53.586;10.610;2024-01-10T01:29:11;64.82;;;16.50;;
62149;SDS011;48134;53.586;10.610;2024-01-10T01:31:44;67.72;;;16.15;;
62149;SDS011;48134;53.586;10.610;2024-01-10T01:34:12;81.30;;;16.75;;
62149;SDS011;48134;53.586;10.610;2024-01-10T01:36:47;50.80;;;16.88;;
62149;SDS011;48134;53.586;10.610;2024-01-10T01:39:22;62.50;;;17.47;;
62149;SDS011;48134;53.586;10.610;2024-01-10T01:41:51;59.95;;;17.48;;
62149;SDS011;48134;53.586;10.610;2024-01-10T01:44:24;53.10;;;18.88;;
62149;SDS011;48134;53.586;10.610;2024-01-10T01:46:57;42.05;;;17.50;;
62149;SDS011;48134;53.586;10.610;2024-01-10T01:49:31;39.20;;;16.60;;
62149;SDS011;48134;53.586;10.610;2024-01-10T01:52:00;42.95;;;16.58;;
62149;SDS011;48134;53.586;10.610;2024-01-10T01:54:34;40.63;;;16.80;;
62149;SDS011;48134;53.586;10.610;2024-01-10T01:57:03;43.30;;;17.67;;
62149;SDS011;48134;53.586;10.610;2024-01-10T01:59:37;40.92;;;18.13;;
62149;SDS011;48134;53.586;10.610;2024-01-10T02:02:05;42.53;;;17.40;;
62149;SDS011;48134;53.586;10.610;2024-01-10T02:04:33;41.03;;;18.65;;
62149;SDS011;48134;53.586;10.610;2024-01-10T02:07:08;36.40;;;16.80;;
62149;SDS011;48134;53.586;10.610;2024-01-10T02:09:41;42.92;;;18.33;;
62149;SDS011;48134;53.586;10.610;2024-01-10T02:12:09;39.47;;;17.27;;
62149;SDS011;48134;53.586;10.610;2024-01-10T02:14:43;44.08;;;18.38;;
62149;SDS011;48134;53.586;10.610;2024-01-10T02:17:16;46.47;;;19.40;;
62149;SDS011;48134;53.586;10.610;2024-01-10T02:19:49;45.20;;;18.08;;
62149;SDS011;48134;53.586;10.610;2024-01-10T02:22:19;46.60;;;20.15;;
62149;SDS011;48134;53.586;10.610;2024-01-10T02:24:52;42.90;;;19.30;;
62149;SDS011;48134;53.586;10.610;2024-01-10T02:27:26;43.25;;;18.95;;
62149;SDS011;48134;53.586;10.610;2024-01-10T02:30:00;43.53;;;19.70;;
62149;SDS011;48134;53.586;10.610;2024-01-10T02:32:35;45.22;;;19.75;;
62149;SDS011;48134;53.586;10.610;2024-01-10T02:35:08;43.67;;;19.45;;
62149;SDS011;48134;53.586;10.610;2024-01-10T02:37:41;40.05;;;18.63;;
62149;SDS011;48134;53.586;10.610;2024-01-10T02:40:16;43.28;;;19.35;;
62149;SDS011;48134;53.586;10.610;2024-01-10T02:42:44;42.50;;;18.65;;
62149;SDS011;48134;53.586;10.610;2024-01-10T02:45:12;44.10;;;18.83;;
62149;SDS011;48134;53.586;10.610;2024-01-10T02:47:40;43.15;;;19.65;;
62149;SDS011;48134;53.586;10.610;2024-01-10T02:50:09;43.67;;;19.42;;
62149;SDS011;48134;53.586;10.610;2024-01-10T02:52:42;39.95;;;18.50;;
62149;SDS011;48134;53.586;10.610;2024-01-10T02:55:11;39.85;;;19.17;;
62149;SDS011;48134;53.586;10.610;2024-01-10T02:57:40;42.13;;;19.38;;
62149;SDS011;48134;53.586;10.610;2024-01-10T03:00:09;39.25;;;19.13;;
62149;SDS011;48134;53.586;10.610;2024-01-10T03:02:43;42.30;;;19.20;;
62149;SDS011;48134;53.586;10.610;2024-01-10T03:05:16;40.67;;;19.50;;
62149;SDS011;48134;53.586;10.610;2024-01-10T03:07:44;39.58;;;17.98;;
62149;SDS011;48134;53.586;10.610;2024-01-10T03:10:12;36.78;;;18.08;;
62149;SDS011;48134;53.586;10.610;2024-01-10T03:12:42;39.53;;;18.15;;
62149;SDS011;48134;53.586;10.610;2024-01-10T03:15:15;37.42;;;18.70;;
62149;SDS011;48134;53.586;10.610;2024-01-10T03:17:48;40.83;;;18.30;;
62149;SDS011;48134;53.586;10.610;2024-01-10T03:20:16;39.55;;;17.67;;
62149;SDS011;48134;53.586;10.610;2024-01-10T03:22:45;39.65;;;18.70;;
62149;SDS011;48134;53.586;10.610;2024-01-10T03:25:13;39.65;;;18.50;;
62149;SDS011;48134;53.586;10.610;2024-01-10T03:27:47;38.63;;;18.58;;
62149;SDS011;48134;53.586;10.610;2024-01-10T03:30:21;41.95;;;19.45;;
62149;SDS011;48134;53.586;10.610;2024-01-10T03:32:56;43.83;;;18.77;;
62149;SDS011;48134;53.586;10.610;2024-01-10T03:35:24;42.10;;;18.90;;
62149;SDS011;48134;53.586;10.610;2024-01-10T03:37:52;44.10;;;19.15;;
62149;SDS011;48134;53.586;10.610;2024-01-10T03:40:25;40.83;;;19.50;;
62149;SDS011;48134;53.586;10.610;2024-01-10T03:43:00;42.60;;;18.75;;
62149;SDS011;48134;53.586;10.610;2024-01-10T03:45:28;40.63;;;19.52;;
62149;SDS011;48134;53.586;10.610;2024-01-10T03:47:56;42.50;;;19.23;;
62149;SDS011;48134;53.586;10.610;2024-01-10T03:50:29;42.83;;;20.08;;
62149;SDS011;48134;53.586;10.610;2024-01-10T03:53:03;40.42;;;18.63;;
62149;SDS011;48134;53.586;10.610;2024-01-10T03:55:36;40.55;;;19.40;;
62149;SDS011;48134;53.586;10.610;2024-01-10T03:58:07;40.42;;;19.23;;
62149;SDS011;48134;53.586;10.610;2024-01-10T04:00:40;35.90;;;18.20;;
62149;SDS011;48134;53.586;10.610;2024-01-10T04:03:08;37.83;;;18.45;;
62149;SDS011;48134;53.586;10.610;2024-01-10T04:05:41;39.40;;;19.13;;
62149;SDS011;48134;53.586;10.610;2024-01-10T04:08:10;38.72;;;19.15;;
62149;SDS011;48134;53.586;10.610;2024-01-10T04:10:38;38.33;;;19.13;;
62149;SDS011;48134;53.586;10.610;2024-01-10T04:13:13;39.75;;;19.38;;
62149;SDS011;48134;53.586;10.610;2024-01-10T04:15:46;39.10;;;20.00;;
62149;SDS011;48134;53.586;10.610;2024-01-10T04:18:14;37.33;;;18.60;;
62149;SDS011;48134;53.586;10.610;2024-01-10T04:20:42;40.22;;;18.90;;
62149;SDS011;48134;53.586;10.610;2024-01-10T04:23:11;37.10;;;18.73;;
62149;SDS011;48134;53.586;10.610;2024-01-10T04:25:44;40.17;;;18.70;;
62149;SDS011;48134;53.586;10.610;2024-01-10T04:28:13;40.42;;;19.42;;
62149;SDS011;48134;53.586;10.610;2024-01-10T04:30:42;36.47;;;18.25;;
62149;SDS011;48134;53.586;10.610;2024-01-10T04:33:15;36.55;;;18.15;;
62149;SDS011;48134;53.586;10.610;2024-01-10T04:35:43;37.40;;;18.23;;
62149;SDS011;48134;53.586;10.610;2024-01-10T04:38:11;36.65;;;17.85;;
62149;SDS011;48134;53.586;10.610;2024-01-10T04:40:40;38.20;;;18.73;;
62149;SDS011;48134;53.586;10.610;2024-01-10T04:43:08;41.13;;;20.40;;
62149;SDS011;48134;53.586;10.610;2024-01-10T04:45:38;41.78;;;19.33;;
62149;SDS011;48134;53.586;10.610;2024-01-10T04:48:06;37.75;;;18.02;;
62149;SDS011;48134;53.586;10.610;2024-01-10T04:50:40;42.90;;;20.77;;
62149;SDS011;48134;53.586;10.610;2024-01-10T04:53:08;39.50;;;17.80;;
62149;SDS011;48134;53.586;10.610;2024-01-10T04:55:41;34.92;;;16.02;;
62149;SDS011;48134;53.586;10.610;2024-01-10T04:58:09;36.83;;;17.52;;
62149;SDS011;48134;53.586;10.610;2024-01-10T05:00:39;39.25;;;18.27;;
62149;SDS011;48134;53.586;10.610;2024-01-10T05:03:12;40.70;;;18.73;;
62149;SDS011;48134;53.586;10.610;2024-01-10T05:05:41;35.22;;;16.98;;
62149;SDS011;48134;53.586;10.610;2024-01-10T05:08:09;32.05;;;15.00;;
62149;SDS011;48134;53.586;10.610;2024-01-10T05:10:38;34.60;;;16.38;;
62149;SDS011;48134;53.586;10.610;2024-01-10T05:13:06;27.75;;;13.43;;
62149;SDS011;48134;53.586;10.610;2024-01-10T05:15:40;33.07;;;13.67;;
62149;SDS011;48134;53.586;10.610;2024-01-10T05:18:08;28.02;;;13.15;;
62149;SDS011;48134;53.586;10.610;2024-01-10T05:20:37;35.40;;;16.10;;
62149;SDS011;48134;53.586;10.610;2024-01-10T05:23:10;35.92;;;17.48;;
62149;SDS011;48134;53.586;10.610;2024-01-10T05:25:43;34.78;;;14.73;;
62149;SDS011;48134;53.586;10.610;2024-01-10T05:28:16;37.88;;;11.90;;
62149;SDS011;48134;53.586;10.610;2024-01-10T05:30:46;26.07;;;10.93;;
62149;SDS011;48134;53.586;10.610;2024-01-10T05:33:22;25.73;;;11.68;;
62149;SDS011;48134;53.586;10.610;2024-01-10T05:35:50;28.70;;;11.13;;
62149;SDS011;48134;53.586;10.610;2024-01-10T05:38:23;25.80;;;10.90;;
62149;SDS011;48134;53.586;10.610;2024-01-10T05:40:57;24.60;;;11.35;;
62149;SDS011;48134;53.586;10.610;2024-01-10T05:43:30;30.20;;;11.40;;
62149;SDS011;48134;53.586;10.610;2024-01-10T05:46:07;27.55;;;12.70;;
62149;SDS011;48134;53.586;10.610;2024-01-10T05:48:41;25.60;;;11.97;;
62149;SDS011;48134;53.586;10.610;2024-01-10T05:51:10;24.33;;;11.27;;
62149;SDS011;48134;53.586;10.610;2024-01-10T05:53:39;19.80;;;9.55;;
62149;SDS011;48134;53.586;10.610;2024-01-10T05:56:14;24.65;;;10.43;;
62149;SDS011;48134;53.586;10.610;2024-01-10T05:58:47;24.80;;;9.65;;
62149;SDS011;48134;53.586;10.610;2024-01-10T06:01:18;27.58;;;9.90;;
62149;SDS011;48134;53.586;10.610;2024-01-10T06:03:51;21.52;;;9.40;;
62149;SDS011;48134;53.586;10.610;2024-01-10T06:06:32;24.73;;;9.80;;
62149;SDS011;48134;53.586;10.610;2024-01-10T06:09:01;22.20;;;9.50;;
62149;SDS011;48134;53.586;10.610;2024-01-10T06:11:34;23.60;;;9.55;;
62149;SDS011;48134;53.586;10.610;2024-01-10T06:14:13;23.10;;;9.80;;
62149;SDS011;48134;53.586;10.610;2024-01-10T06:16:46;20.73;;;9.68;;
62149;SDS011;48134;53.586;10.610;2024-01-10T06:19:21;21.42;;;8.68;;
62149;SDS011;48134;53.586;10.610;2024-01-10T06:21:54;21.30;;;9.57;;
62149;SDS011;48134;53.586;10.610;2024-01-10T06:24:28;21.40;;;9.30;;
62149;SDS011;48134;53.586;10.610;2024-01-10T06:26:56;20.42;;;10.15;;
62149;SDS011;48134;53.586;10.610;2024-01-10T06:29:24;19.20;;;9.50;;
62149;SDS011;48134;53.586;10.610;2024-01-10T06:31:59;16.50;;;8.68;;
62149;SDS011;48134;53.586;10.610;2024-01-10T06:34:28;18.15;;;8.05;;
62149;SDS011;48134;53.586;10.610;2024-01-10T06:36:56;18.05;;;8.50;;
62149;SDS011;48134;53.586;10.610;2024-01-10T06:39:29;22.23;;;8.93;;
62149;SDS011;48134;53.586;10.610;2024-01-10T06:42:03;20.73;;;9.13;;
62149;SDS011;48134;53.586;10.610;2024-01-10T06:44:32;18.20;;;8.73;;
62149;SDS011;48134;53.586;10.610;2024-01-10T06:47:02;18.80;;;9.55;;
62149;SDS011;48134;53.586;10.610;2024-01-10T06:49:31;19.63;;;9.43;;
62149;SDS011;48134;53.586;10.610;2024-01-10T06:51:59;18.67;;;9.05;;
62149;SDS011;48134;53.586;10.610;2024-01-10T06:54:28;22.10;;;10.10;;
62149;SDS011;48134;53.586;10.610;2024-01-10T06:56:56;23.10;;;10.30;;
62149;SDS011;48134;53.586;10.610;2024-01-10T06:59:29;32.38;;;10.10;;
62149;SDS011;48134;53.586;10.610;2024-01-10T07:02:04;25.52;;;9.52;;
62149;SDS011;48134;53.586;10.610;2024-01-10T07:04:33;24.20;;;9.50;;
62149;SDS011;48134;53.586;10.610;2024-01-10T07:07:09;28.63;;;10.38;;
62149;SDS011;48134;53.586;10.610;2024-01-10T07:09:38;23.27;;;9.98;;
62149;SDS011;48134;53.586;10.610;2024-01-10T07:12:12;29.55;;;10.57;;
62149;SDS011;48134;53.586;10.610;2024-01-10T07:14:40;20.23;;;9.50;;
62149;SDS011;48134;53.586;10.610;2024-01-10T07:17:10;22.17;;;9.60;;
62149;SDS011;48134;53.586;10.610;2024-01-10T07:19:38;22.25;;;9.95;;
62149;SDS011;48134;53.586;10.610;2024-01-10T07:22:07;19.48;;;9.50;;
62149;SDS011;48134;53.586;10.610;2024-01-10T07:24:37;22.13;;;8.93;;
62149;SDS011;48134;53.586;10.610;2024-01-10T07:27:05;21.45;;;9.32;;
62149;SDS011;48134;53.586;10.610;2024-01-10T07:29:39;18.73;;;8.88;;
62149;SDS011;48134;53.586;10.610;2024-01-10T07:32:07;17.83;;;8.70;;
62149;SDS011;48134;53.586;10.610;2024-01-10T07:34:38;23.05;;;8.73;;
62149;SDS011;48134;53.586;10.610;2024-01-10T07:37:11;28.83;;;9.57;;
62149;SDS011;48134;53.586;10.610;2024-01-10T07:39:48;22.55;;;8.88;;
62149;SDS011;48134;53.586;10.610;2024-01-10T07:42:17;19.08;;;8.20;;
62149;SDS011;48134;53.586;10.610;2024-01-10T07:44:46;20.90;;;8.82;;
62149;SDS011;48134;53.586;10.610;2024-01-10T07:47:17;23.10;;;9.40;;
62149;SDS011;48134;53.586;10.610;2024-01-10T07:49:46;23.98;;;10.50;;
62149;SDS011;48134;53.586;10.610;2024-01-10T07:52:15;25.30;;;11.18;;
62149;SDS011;48134;53.586;10.610;2024-01-10T07:54:44;31.10;;;12.75;;
62149;SDS011;48134;53.586;10.610;2024-01-10T07:57:17;35.87;;;14.27;;
62149;SDS011;48134;53.586;10.610;2024-01-10T07:59:45;37.03;;;14.27;;
62149;SDS011;48134;53.586;10.610;2024-01-10T08:02:20;32.72;;;12.90;;
62149;SDS011;48134;53.586;10.610;2024-01-10T08:04:49;26.90;;;12.05;;
62149;SDS011;48134;53.586;10.610;2024-01-10T08:07:23;28.83;;;12.40;;
62149;SDS011;48134;53.586;10.610;2024-01-10T08:09:51;24.55;;;10.73;;
62149;SDS011;48134;53.586;10.610;2024-01-10T08:12:19;26.83;;;11.43;;
62149;SDS011;48134;53.586;10.610;2024-01-10T08:14:48;28.48;;;12.50;;
62149;SDS011;48134;53.586;10.610;2024-01-10T08:17:24;26.80;;;11.68;;
62149;SDS011;48134;53.586;10.610;2024-01-10T08:20:39;30.48;;;12.93;;
62149;SDS011;48134;53.586;10.610;2024-01-10T08:23:07;27.52;;;11.88;;
62149;SDS011;48134;53.586;10.610;2024-01-10T08:25:41;26.08;;;11.20;;
62149;SDS011;48134;53.586;10.610;2024-01-10T08:28:10;26.75;;;11.55;;
62149;SDS011;48134;53.586;10.610;2024-01-10T08:30:40;27.27;;;12.37;;
62149;SDS011;48134;53.586;10.610;2024-01-10T08:33:09;25.88;;;12.65;;
62149;SDS011;48134;53.586;10.610;2024-01-10T08:35:43;26.10;;;12.23;;
62149;SDS011;48134;53.586;10.610;2024-01-10T08:38:11;24.80;;;11.52;;
62149;SDS011;48134;53.586;10.610;2024-01-10T08:40:45;24.85;;;10.50;;
62149;SDS011;48134;53.586;10.610;2024-01-10T08:43:14;22.80;;;10.13;;
62149;SDS011;48134;53.586;10.610;2024-01-10T08:45:42;24.38;;;10.48;;
62149;SDS011;48134;53.586;10.610;2024-01-10T08:48:12;30.27;;;12.30;;
62149;SDS011;48134;53.586;10.610;2024-01-10T08:50:40;29.45;;;12.30;;
62149;SDS011;48134;53.586;10.610;2024-01-10T08:53:09;26.40;;;11.48;;
62149;SDS011;48134;53.586;10.610;2024-01-10T08:55:38;21.58;;;9.15;;
62149;SDS011;48134;53.586;10.610;2024-01-10T08:58:06;23.35;;;10.50;;
62149;SDS011;48134;53.586;10.610;2024-01-10T09:00:35;28.43;;;10.90;;
62149;SDS011;48134;53.586;10.610;2024-01-10T09:03:03;21.85;;;9.77;;
62149;SDS011;48134;53.586;10.610;2024-01-10T09:05:38;24.97;;;10.73;;
62149;SDS011;48134;53.586;10.610;2024-01-10T09:08:07;24.67;;;10.40;;
62149;SDS011;48134;53.586;10.610;2024-01-10T09:10:35;22.27;;;8.65;;
62149;SDS011;48134;53.586;10.610;2024-01-10T09:13:06;20.63;;;9.38;;
62149;SDS011;48134;53.586;10.610;2024-01-10T09:15:40;28.70;;;10.55;;
62149;SDS011;48134;53.586;10.610;2024-01-10T09:18:09;22.73;;;9.25;;
62149;SDS011;48134;53.586;10.610;2024-01-10T09:20:39;21.38;;;8.93;;
62149;SDS011;48134;53.586;10.610;2024-01-10T09:23:07;21.85;;;9.43;;
62149;SDS011;48134;53.586;10.610;2024-01-10T09:25:42;23.15;;;10.13;;
62149;SDS011;48134;53.586;10.610;2024-01-10T09:28:15;24.17;;;10.63;;
62149;SDS011;48134;53.586;10.610;2024-01-10T09:30:43;21.75;;;9.70;;
62149;SDS011;48134;53.586;10.610;2024-01-10T09:33:12;22.65;;;9.63;;
62149;SDS011;48134;53.586;10.610;2024-01-10T09:35:41;24.55;;;10.07;;
62149;SDS011;48134;53.586;10.610;2024-01-10T09:38:10;24.92;;;10.73;;
62149;SDS011;48134;53.586;10.610;2024-01-10T09:40:38;22.02;;;9.00;;
62149;SDS011;48134;53.586;10.610;2024-01-10T09:43:06;25.13;;;10.45;;
62149;SDS011;48134;53.586;10.610;2024-01-10T09:45:35;22.92;;;9.43;;
62149;SDS011;48134;53.586;10.610;2024-01-10T09:48:04;18.17;;;7.73;;
62149;SDS011;48134;53.586;10.610;2024-01-10T09:50:32;15.93;;;7.82;;
62149;SDS011;48134;53.586;10.610;2024-01-10T09:53:04;15.48;;;7.28;;
62149;SDS011;48134;53.586;10.610;2024-01-10T09:55:36;15.45;;;7.50;;
62149;SDS011;48134;53.586;10.610;2024-01-10T09:58:06;15.00;;;6.78;;
62149;SDS011;48134;53.586;10.610;2024-01-10T10:00:35;12.25;;;5.80;;
62149;SDS011;48134;53.586;10.610;2024-01-10T10:03:04;12.65;;;5.18;;
62149;SDS011;48134;53.586;10.610;2024-01-10T10:05:37;12.57;;;5.93;;
62149;SDS011;48134;53.586;10.610;2024-01-10T10:08:07;12.95;;;6.05;;
62149;SDS011;48134;53.586;10.610;2024-01-10T10:10:43;13.95;;;6.38;;
62149;SDS011;48134;53.586;10.610;2024-01-10T10:13:26;15.52;;;5.80;;
62149;SDS011;48134;53.586;10.610;2024-01-10T10:16:01;11.40;;;5.25;;
62149;SDS011;48134;53.586;10.610;2024-01-10T10:18:30;12.30;;;6.00;;
62149;SDS011;48134;53.586;10.610;2024-01-10T10:21:09;13.27;;;5.37;;
62149;SDS011;48134;53.586;10.610;2024-01-10T10:23:58;13.30;;;5.45;;
62149;SDS011;48134;53.586;10.610;2024-01-10T10:26:33;12.88;;;5.82;;
62149;SDS011;48134;53.586;10.610;2024-01-10T10:29:02;13.07;;;6.00;;
62149;SDS011;48134;53.586;10.610;2024-01-10T10:31:32;15.35;;;5.97;;
62149;SDS011;48134;53.586;10.610;2024-01-10T10:34:05;10.98;;;5.22;;
62149;SDS011;48134;53.586;10.610;2024-01-10T10:36:39;12.75;;;6.30;;
62149;SDS011;48134;53.586;10.610;2024-01-10T10:39:17;15.52;;;6.80;;
62149;SDS011;48134;53.586;10.610;2024-01-10T10:41:45;14.45;;;6.60;;
62149;SDS011;48134;53.586;10.610;2024-01-10T10:44:23;14.48;;;6.45;;
62149;SDS011;48134;53.586;10.610;2024-01-10T10:46:52;13.95;;;6.40;;
62149;SDS011;48134;53.586;10.610;2024-01-10T10:49:28;14.80;;;6.20;;
62149;SDS011;48134;53.586;10.610;2024-01-10T10:52:03;13.02;;;6.63;;
62149;SDS011;48134;53.586;10.610;2024-01-10T10:54:38;17.08;;;8.00;;
62149;SDS011;48134;53.586;10.610;2024-01-10T10:57:12;13.60;;;6.30;;
62149;SDS011;48134;53.586;10.610;2024-01-10T10:59:42;17.08;;;7.95;;
62149;SDS011;48134;53.586;10.610;2024-01-10T11:02:11;14.38;;;6.65;;
62149;SDS011;48134;53.586;10.610;2024-01-10T11:04:44;14.50;;;6.18;;
62149;SDS011;48134;53.586;10.610;2024-01-10T11:07:12;15.18;;;7.25;;
62149;SDS011;48134;53.586;10.610;2024-01-10T11:09:47;19.80;;;9.13;;
62149;SDS011;48134;53.586;10.610;2024-01-10T11:12:27;15.27;;;7.65;;
62149;SDS011;48134;53.586;10.610;2024-01-10T11:15:14;14.65;;;6.80;;
62149;SDS011;48134;53.586;10.610;2024-01-10T11:18:08;15.55;;;7.60;;
62149;SDS011;48134;53.586;10.610;2024-01-10T11:20:50;17.63;;;8.18;;
62149;SDS011;48134;53.586;10.610;2024-01-10T11:23:33;17.35;;;8.20;;
62149;SDS011;48134;53.586;10.610;2024-01-10T11:26:13;19.58;;;9.25;;
62149;SDS011;48134;53.586;10.610;2024-01-10T11:28:47;16.13;;;8.30;;
62149;SDS011;48134;53.586;10.610;2024-01-10T11:31:26;14.07;;;6.93;;
62149;SDS011;48134;53.586;10.610;2024-01-10T11:33:56;15.32;;;7.20;;
62149;SDS011;48134;53.586;10.610;2024-01-10T11:36:30;15.32;;;6.97;;
62149;SDS011;48134;53.586;10.610;2024-01-10T11:38:59;14.30;;;7.00;;
62149;SDS011;48134;53.586;10.610;2024-01-10T11:41:31;18.75;;;7.95;;
62149;SDS011;48134;53.586;10.610;2024-01-10T11:44:25;14.52;;;6.30;;
62149;SDS011;48134;53.586;10.610;2024-01-10T11:46:59;13.40;;;6.75;;
62149;SDS011;48134;53.586;10.610;2024-01-10T11:49:32;16.08;;;7.75;;
62149;SDS011;48134;53.586;10.610;2024-01-10T11:52:06;14.15;;;6.80;;
62149;SDS011;48134;53.586;10.610;2024-01-10T11:54:41;13.07;;;6.38;;
62149;SDS011;48134;53.586;10.610;2024-01-10T11:57:12;13.25;;;6.72;;
62149;SDS011;48134;53.586;10.610;2024-01-10T11:59:42;16.50;;;8.18;;
62149;SDS011;48134;53.586;10.610;2024-01-10T12:02:12;17.58;;;8.70;;
62149;SDS011;48134;53.586;10.610;2024-01-10T12:04:41;17.00;;;7.15;;
62149;SDS011;48134;53.586;10.610;2024-01-10T12:07:15;15.63;;;7.30;;
62149;SDS011;48134;53.586;10.610;2024-01-10T12:09:44;15.30;;;7.70;;
62149;SDS011;48134;53.586;10.610;2024-01-10T12:12:15;18.88;;;8.25;;
62149;SDS011;48134;53.586;10.610;2024-01-10T12:14:48;17.50;;;8.45;;
62149;SDS011;48134;53.586;10.610;2024-01-10T12:17:18;17.77;;;8.90;;
62149;SDS011;48134;53.586;10.610;2024-01-10T12:19:52;17.47;;;8.60;;
62149;SDS011;48134;53.586;10.610;2024-01-10T12:22:20;16.90;;;8.23;;
62149;SDS011;48134;53.586;10.610;2024-01-10T12:24:53;17.23;;;8.85;;
62149;SDS011;48134;53.586;10.610;2024-01-10T12:27:23;18.73;;;9.05;;
62149;SDS011;48134;53.586;10.610;2024-01-10T12:29:51;18.05;;;9.32;;
62149;SDS011;48134;53.586;10.610;2024-01-10T12:32:20;19.33;;;9.10;;
62149;SDS011;48134;53.586;10.610;2024-01-10T12:34:51;20.00;;;8.93;;
62149;SDS011;48134;53.586;10.610;2024-01-10T12:37:22;19.27;;;9.40;;
62149;SDS011;48134;53.586;10.610;2024-01-10T12:39:56;20.75;;;10.40;;
62149;SDS011;48134;53.586;10.610;2024-01-10T12:42:26;18.42;;;8.93;;
62149;SDS011;48134;53.586;10.610;2024-01-10T12:44:59;16.63;;;8.30;;
62149;SDS011;48134;53.586;10.610;2024-01-10T12:47:34;17.67;;;8.60;;
62149;SDS011;48134;53.586;10.610;2024-01-10T12:50:08;19.27;;;9.40;;
62149;SDS011;48134;53.586;10.610;2024-01-10T12:52:36;17.90;;;8.50;;
62149;SDS011;48134;53.586;10.610;2024-01-10T12:55:06;16.53;;;7.80;;
62149;SDS011;48134;53.586;10.610;2024-01-10T12:57:36;20.38;;;9.50;;
62149;SDS011;48134;53.586;10.610;2024-01-10T13:00:05;16.77;;;8.40;;
62149;SDS011;48134;53.586;10.610;2024-01-10T13:02:40;16.08;;;8.02;;
62149;SDS011;48134;53.586;10.610;2024-01-10T13:05:08;16.77;;;8.23;;
62149;SDS011;48134;53.586;10.610;2024-01-10T13:07:42;15.50;;;7.33;;
62149;SDS011;48134;53.586;10.610;2024-01-10T13:10:10;16.58;;;7.40;;
62149;SDS011;48134;53.586;10.610;2024-01-10T13:12:40;17.00;;;8.43;;
62149;SDS011;48134;53.586;10.610;2024-01-10T13:15:10;20.00;;;9.70;;
62149;SDS011;48134;53.586;10.610;2024-01-10T13:17:38;17.65;;;8.60;;
62149;SDS011;48134;53.586;10.610;2024-01-10T13:20:11;20.25;;;9.25;;
62149;SDS011;48134;53.586;10.610;2024-01-10T13:22:40;18.67;;;8.63;;
62149;SDS011;48134;53.586;10.610;2024-01-10T13:25:13;16.20;;;7.88;;
62149;SDS011;48134;53.586;10.610;2024-01-10T13:27:43;18.45;;;8.35;;
62149;SDS011;48134;53.586;10.610;2024-01-10T13:30:17;16.65;;;8.43;;
62149;SDS011;48134;53.586;10.610;2024-01-10T13:32:46;20.08;;;8.77;;
62149;SDS011;48134;53.586;10.610;2024-01-10T13:35:15;17.13;;;8.48;;
62149;SDS011;48134;53.586;10.610;2024-01-10T13:37:49;16.60;;;8.20;;
62149;SDS011;48134;53.586;10.610;2024-01-10T13:40:17;15.93;;;8.10;;
62149;SDS011;48134;53.586;10.610;2024-01-10T13:42:51;18.07;;;8.30;;
62149;SDS011;48134;53.586;10.610;2024-01-10T13:45:21;17.37;;;7.93;;
62149;SDS011;48134;53.586;10.610;2024-01-10T13:47:54;15.57;;;7.53;;
62149;SDS011;48134;53.586;10.610;2024-01-10T13:50:28;17.08;;;7.95;;
62149;SDS011;48134;53.586;10.610;2024-01-10T13:52:56;18.70;;;8.45;;
62149;SDS011;48134;53.586;10.610;2024-01-10T13:55:30;20.25;;;9.63;;
62149;SDS011;48134;53.586;10.610;2024-01-10T13:58:00;21.70;;;10.00;;
62149;SDS011;48134;53.586;10.610;2024-01-10T14:00:28;21.20;;;10.65;;
62149;SDS011;48134;53.586;10.610;2024-01-10T14:02:57;17.83;;;8.50;;
62149;SDS011;48134;53.586;10.610;2024-01-10T14:05:26;17.95;;;8.30;;
62149;SDS011;48134;53.586;10.610;2024-01-10T14:08:00;16.50;;;8.20;;
62149;SDS011;48134;53.586;10.610;2024-01-10T14:10:28;15.52;;;7.47;;
62149;SDS011;48134;53.586;10.610;2024-01-10T14:13:03;18.98;;;8.82;;
62149;SDS011;48134;53.586;10.610;2024-01-10T14:15:36;19.97;;;9.97;;
62149;SDS011;48134;53.586;10.610;2024-01-10T14:18:04;19.60;;;9.00;;
62149;SDS011;48134;53.586;10.610;2024-01-10T14:20:32;18.02;;;8.80;;
62149;SDS011;48134;53.586;10.610;2024-01-10T14:23:07;18.77;;;9.48;;
62149;SDS011;48134;53.586;10.610;2024-01-10T14:25:36;20.53;;;10.00;;
62149;SDS011;48134;53.586;10.610;2024-01-10T14:28:05;19.98;;;10.07;;
62149;SDS011;48134;53.586;10.610;2024-01-10T14:30:34;19.30;;;9.23;;
62149;SDS011;48134;53.586;10.610;2024-01-10T14:33:02;17.40;;;8.90;;
62149;SDS011;48134;53.586;10.610;2024-01-10T14:35:36;20.10;;;10.57;;
62149;SDS011;48134;53.586;10.610;2024-01-10T14:38:04;21.67;;;10.20;;